sensor_id;sensor_type;location;lat;lon;timestamp;temperature;humidity
41628;DHT22;27321;50.816;6.054;2022-12-20T00:00:34;12.30;70.00
41628;DHT22;27321;50.816;6.054;2022-12-20T00:03:35;12.40;70.00
41628;DHT22;27321;50.816;6.054;2022-12-20T00:06:37;12.30;69.80
41628;DHT22;27321;50.816;6.054;2022-12-20T00:09:38;12.30;70.00
41628;DHT22;27321;50.816;6.054;2022-12-20T00:12:39;12.30;69.90
41628;DHT22;27321;50.816;6.054;2022-12-20T00:15:40;12.30;69.90
41628;DHT22;27321;50.816;6.054;2022-12-20T00:18:41;12.30;69.80
41628;DHT22;27321;50.816;6.054;2022-12-20T00:21:43;12.30;69.90
41628;DHT22;27321;50.816;6.054;2022-12-20T00:24:44;12.30;69.90
41628;DHT22;27321;50.816;6.054;2022-12-20T00:27:46;12.30;69.90
41628;DHT22;27321;50.816;6.054;2022-12-20T00:30:52;12.30;69.90
41628;DHT22;27321;50.816;6.054;2022-12-20T00:33:55;12.30;69.80
41628;DHT22;27321;50.816;6.054;2022-12-20T00:36:57;12.30;69.70
41628;DHT22;27321;50.816;6.054;2022-12-20T00:39:58;12.30;69.80
41628;DHT22;27321;50.816;6.054;2022-12-20T00:42:59;12.30;69.80
41628;DHT22;27321;50.816;6.054;2022-12-20T00:46:01;12.30;69.80
41628;DHT22;27321;50.816;6.054;2022-12-20T00:49:02;12.30;70.00
41628;DHT22;27321;50.816;6.054;2022-12-20T00:52:03;12.30;70.10
41628;DHT22;27321;50.816;6.054;2022-12-20T00:55:04;12.30;70.20
41628;DHT22;27321;50.816;6.054;2022-12-20T00:58:05;12.20;70.10
41628;DHT22;27321;50.816;6.054;2022-12-20T01:01:18;12.20;70.30
41628;DHT22;27321;50.816;6.054;2022-12-20T01:04:21;12.30;70.50
41628;DHT22;27321;50.816;6.054;2022-12-20T01:07:22;12.20;70.50
41628;DHT22;27321;50.816;6.054;2022-12-20T01:10:24;12.20;70.60
41628;DHT22;27321;50.816;6.054;2022-12-20T01:13:26;12.20;70.90
41628;DHT22;27321;50.816;6.054;2022-12-20T01:16:34;12.20;71.00
41628;DHT22;27321;50.816;6.054;2022-12-20T01:19:37;12.20;71.00
41628;DHT22;27321;50.816;6.054;2022-12-20T01:22:38;12.20;71.10
41628;DHT22;27321;50.816;6.054;2022-12-20T01:25:39;12.10;71.20
41628;DHT22;27321;50.816;6.054;2022-12-20T01:28:42;12.10;71.20
41628;DHT22;27321;50.816;6.054;2022-12-20T01:31:44;12.10;71.40
41628;DHT22;27321;50.816;6.054;2022-12-20T01:34:45;12.10;71.40
41628;DHT22;27321;50.816;6.054;2022-12-20T01:37:47;12.10;71.50
41628;DHT22;27321;50.816;6.054;2022-12-20T01:40:48;12.10;71.50
41628;DHT22;27321;50.816;6.054;2022-12-20T01:43:55;12.10;71.60
41628;DHT22;27321;50.816;6.054;2022-12-20T01:46:58;12.10;71.70
41628;DHT22;27321;50.816;6.054;2022-12-20T01:50:01;12.00;71.80
41628;DHT22;27321;50.816;6.054;2022-12-20T01:53:04;12.10;71.80
41628;DHT22;27321;50.816;6.054;2022-12-20T01:56:05;12.00;71.70
41628;DHT22;27321;50.816;6.054;2022-12-20T01:59:07;12.00;71.60
41628;DHT22;27321;50.816;6.054;2022-12-20T02:02:11;12.10;71.70
41628;DHT22;27321;50.816;6.054;2022-12-20T02:05:13;12.10;71.80
41628;DHT22;27321;50.816;6.054;2022-12-20T02:08:15;12.00;71.70
41628;DHT22;27321;50.816;6.054;2022-12-20T02:31:14;12.10;71.70
41628;DHT22;27321;50.816;6.054;2022-12-20T02:34:21;12.10;72.30
41628;DHT22;27321;50.816;6.054;2022-12-20T02:37:24;12.10;73.50
41628;DHT22;27321;50.816;6.054;2022-12-20T02:40:33;12.00;74.10
41628;DHT22;27321;50.816;6.054;2022-12-20T02:43:38;11.90;74.70
41628;DHT22;27321;50.816;6.054;2022-12-20T02:47:02;11.80;74.70
41628;DHT22;27321;50.816;6.054;2022-12-20T02:50:07;11.80;74.70
41628;DHT22;27321;50.816;6.054;2022-12-20T02:53:09;11.80;74.60
41628;DHT22;27321;50.816;6.054;2022-12-20T02:56:26;11.80;74.60
41628;DHT22;27321;50.816;6.054;2022-12-20T02:59:38;11.80;74.40
41628;DHT22;27321;50.816;6.054;2022-12-20T03:02:45;11.80;74.30
41628;DHT22;27321;50.816;6.054;2022-12-20T03:06:06;11.80;74.50
41628;DHT22;27321;50.816;6.054;2022-12-20T03:09:07;11.80;74.00
41628;DHT22;27321;50.816;6.054;2022-12-20T03:12:12;11.80;74.10
41628;DHT22;27321;50.816;6.054;2022-12-20T03:15:15;11.80;74.00
41628;DHT22;27321;50.816;6.054;2022-12-20T03:18:17;11.80;74.00
41628;DHT22;27321;50.816;6.054;2022-12-20T03:21:18;11.80;74.00
41628;DHT22;27321;50.816;6.054;2022-12-20T03:24:19;11.80;74.10
41628;DHT22;27321;50.816;6.054;2022-12-20T03:27:21;11.80;74.20
41628;DHT22;27321;50.816;6.054;2022-12-20T03:30:22;11.80;74.40
41628;DHT22;27321;50.816;6.054;2022-12-20T03:33:24;11.80;74.40
41628;DHT22;27321;50.816;6.054;2022-12-20T03:36:25;11.80;74.50
41628;DHT22;27321;50.816;6.054;2022-12-20T03:39:31;11.80;74.40
41628;DHT22;27321;50.816;6.054;2022-12-20T03:42:33;11.80;74.70
41628;DHT22;27321;50.816;6.054;2022-12-20T03:45:34;11.80;75.30
41628;DHT22;27321;50.816;6.054;2022-12-20T03:48:35;11.80;75.70
41628;DHT22;27321;50.816;6.054;2022-12-20T03:51:36;11.70;76.30
41628;DHT22;27321;50.816;6.054;2022-12-20T03:54:37;11.70;76.40
41628;DHT22;27321;50.816;6.054;2022-12-20T03:57:48;11.70;76.30
41628;DHT22;27321;50.816;6.054;2022-12-20T04:01:01;11.70;76.10
41628;DHT22;27321;50.816;6.054;2022-12-20T04:04:16;11.70;75.40
41628;DHT22;27321;50.816;6.054;2022-12-20T04:07:18;11.60;75.40
41628;DHT22;27321;50.816;6.054;2022-12-20T04:10:21;11.60;75.40
41628;DHT22;27321;50.816;6.054;2022-12-20T04:13:22;11.60;75.50
41628;DHT22;27321;50.816;6.054;2022-12-20T04:16:25;11.60;75.20
41628;DHT22;27321;50.816;6.054;2022-12-20T04:19:29;11.60;75.10
41628;DHT22;27321;50.816;6.054;2022-12-20T04:22:30;11.60;75.10
41628;DHT22;27321;50.816;6.054;2022-12-20T04:25:37;11.60;74.70
41628;DHT22;27321;50.816;6.054;2022-12-20T04:28:40;11.60;74.50
41628;DHT22;27321;50.816;6.054;2022-12-20T04:31:44;11.60;74.30
41628;DHT22;27321;50.816;6.054;2022-12-20T04:34:45;11.70;74.20
41628;DHT22;27321;50.816;6.054;2022-12-20T04:37:47;11.70;74.10
41628;DHT22;27321;50.816;6.054;2022-12-20T04:40:50;11.70;73.90
41628;DHT22;27321;50.816;6.054;2022-12-20T04:43:55;11.70;73.80
41628;DHT22;27321;50.816;6.054;2022-12-20T04:47:00;11.70;73.60
41628;DHT22;27321;50.816;6.054;2022-12-20T04:50:03;11.80;73.50
41628;DHT22;27321;50.816;6.054;2022-12-20T04:53:04;11.80;73.30
41628;DHT22;27321;50.816;6.054;2022-12-20T04:56:27;11.80;73.40
41628;DHT22;27321;50.816;6.054;2022-12-20T04:59:32;11.70;73.20
41628;DHT22;27321;50.816;6.054;2022-12-20T05:02:33;11.70;73.10
41628;DHT22;27321;50.816;6.054;2022-12-20T05:05:42;11.70;73.10
41628;DHT22;27321;50.816;6.054;2022-12-20T05:08:44;11.80;72.90
41628;DHT22;27321;50.816;6.054;2022-12-20T05:11:45;11.80;72.90
41628;DHT22;27321;50.816;6.054;2022-12-20T05:14:46;11.80;72.80
41628;DHT22;27321;50.816;6.054;2022-12-20T05:17:50;11.80;72.90
41628;DHT22;27321;50.816;6.054;2022-12-20T05:20:54;11.80;72.50
41628;DHT22;27321;50.816;6.054;2022-12-20T05:24:17;11.80;72.70
41628;DHT22;27321;50.816;6.054;2022-12-20T05:27:50;11.80;72.50
41628;DHT22;27321;50.816;6.054;2022-12-20T05:30:51;11.80;72.20
41628;DHT22;27321;50.816;6.054;2022-12-20T05:33:52;11.90;72.20
41628;DHT22;27321;50.816;6.054;2022-12-20T05:36:54;12.00;72.10
41628;DHT22;27321;50.816;6.054;2022-12-20T05:39:58;12.00;71.70
41628;DHT22;27321;50.816;6.054;2022-12-20T05:42:59;12.00;71.70
41628;DHT22;27321;50.816;6.054;2022-12-20T05:46:09;12.00;71.60
41628;DHT22;27321;50.816;6.054;2022-12-20T05:49:23;12.00;71.40
41628;DHT22;27321;50.816;6.054;2022-12-20T05:52:25;12.10;71.20
41628;DHT22;27321;50.816;6.054;2022-12-20T05:55:26;12.10;71.20
41628;DHT22;27321;50.816;6.054;2022-12-20T05:58:27;12.10;70.90
41628;DHT22;27321;50.816;6.054;2022-12-20T06:01:34;12.10;71.00
41628;DHT22;27321;50.816;6.054;2022-12-20T06:04:37;12.10;70.90
41628;DHT22;27321;50.816;6.054;2022-12-20T06:07:46;12.10;70.80
41628;DHT22;27321;50.816;6.054;2022-12-20T06:10:48;12.10;70.90
41628;DHT22;27321;50.816;6.054;2022-12-20T06:13:50;12.10;70.60
41628;DHT22;27321;50.816;6.054;2022-12-20T06:16:53;12.20;70.50
41628;DHT22;27321;50.816;6.054;2022-12-20T06:19:55;12.10;70.60
41628;DHT22;27321;50.816;6.054;2022-12-20T06:22:57;12.10;70.60
41628;DHT22;27321;50.816;6.054;2022-12-20T06:25:58;12.10;70.70
41628;DHT22;27321;50.816;6.054;2022-12-20T06:29:04;12.10;70.90
41628;DHT22;27321;50.816;6.054;2022-12-20T06:32:18;12.10;70.80
41628;DHT22;27321;50.816;6.054;2022-12-20T06:35:19;12.10;70.70
41628;DHT22;27321;50.816;6.054;2022-12-20T06:38:22;12.10;71.00
41628;DHT22;27321;50.816;6.054;2022-12-20T06:41:23;12.10;71.10
41628;DHT22;27321;50.816;6.054;2022-12-20T06:44:26;12.10;70.80
41628;DHT22;27321;50.816;6.054;2022-12-20T06:47:27;12.10;70.90
41628;DHT22;27321;50.816;6.054;2022-12-20T06:50:28;12.10;70.90
41628;DHT22;27321;50.816;6.054;2022-12-20T06:53:29;12.10;70.80
41628;DHT22;27321;50.816;6.054;2022-12-20T06:56:30;12.10;70.80
41628;DHT22;27321;50.816;6.054;2022-12-20T06:59:31;12.20;70.90
41628;DHT22;27321;50.816;6.054;2022-12-20T07:02:32;12.20;70.70
41628;DHT22;27321;50.816;6.054;2022-12-20T07:05:33;12.20;70.50
41628;DHT22;27321;50.816;6.054;2022-12-20T07:08:35;12.20;70.60
41628;DHT22;27321;50.816;6.054;2022-12-20T07:11:37;12.10;70.70
41628;DHT22;27321;50.816;6.054;2022-12-20T07:14:38;12.20;70.60
41628;DHT22;27321;50.816;6.054;2022-12-20T07:17:39;12.20;70.70
41628;DHT22;27321;50.816;6.054;2022-12-20T07:20:40;12.20;70.70
41628;DHT22;27321;50.816;6.054;2022-12-20T07:23:41;12.20;70.80
41628;DHT22;27321;50.816;6.054;2022-12-20T07:26:45;12.20;70.60
41628;DHT22;27321;50.816;6.054;2022-12-20T07:29:45;12.20;70.50
41628;DHT22;27321;50.816;6.054;2022-12-20T07:32:47;12.20;70.30
41628;DHT22;27321;50.816;6.054;2022-12-20T07:35:47;12.20;70.40
41628;DHT22;27321;50.816;6.054;2022-12-20T07:38:49;12.20;70.90
41628;DHT22;27321;50.816;6.054;2022-12-20T07:41:54;12.20;70.70
41628;DHT22;27321;50.816;6.054;2022-12-20T07:44:56;12.20;71.00
41628;DHT22;27321;50.816;6.054;2022-12-20T07:47:57;12.20;70.50
41628;DHT22;27321;50.816;6.054;2022-12-20T07:51:03;12.20;70.50
41628;DHT22;27321;50.816;6.054;2022-12-20T07:54:25;12.20;70.30
41628;DHT22;27321;50.816;6.054;2022-12-20T07:57:35;12.30;70.20
41628;DHT22;27321;50.816;6.054;2022-12-20T08:00:38;12.30;70.20
41628;DHT22;27321;50.816;6.054;2022-12-20T08:03:43;12.30;70.30
41628;DHT22;27321;50.816;6.054;2022-12-20T08:06:47;12.30;70.10
41628;DHT22;27321;50.816;6.054;2022-12-20T08:09:48;12.30;70.10
41628;DHT22;27321;50.816;6.054;2022-12-20T08:12:50;12.30;69.80
41628;DHT22;27321;50.816;6.054;2022-12-20T08:15:51;12.30;70.00
41628;DHT22;27321;50.816;6.054;2022-12-20T08:18:52;12.30;69.90
41628;DHT22;27321;50.816;6.054;2022-12-20T08:21:53;12.40;69.70
41628;DHT22;27321;50.816;6.054;2022-12-20T08:24:54;12.40;69.70
41628;DHT22;27321;50.816;6.054;2022-12-20T08:27:55;12.40;69.70
41628;DHT22;27321;50.816;6.054;2022-12-20T08:31:04;12.40;69.70
41628;DHT22;27321;50.816;6.054;2022-12-20T08:34:06;12.40;69.80
41628;DHT22;27321;50.816;6.054;2022-12-20T08:37:07;12.40;69.90
41628;DHT22;27321;50.816;6.054;2022-12-20T08:40:09;12.40;69.90
41628;DHT22;27321;50.816;6.054;2022-12-20T08:43:10;12.40;69.80
41628;DHT22;27321;50.816;6.054;2022-12-20T08:46:11;12.40;69.90
41628;DHT22;27321;50.816;6.054;2022-12-20T08:49:12;12.50;70.00
41628;DHT22;27321;50.816;6.054;2022-12-20T08:52:13;12.50;69.90
41628;DHT22;27321;50.816;6.054;2022-12-20T08:55:14;12.50;70.00
41628;DHT22;27321;50.816;6.054;2022-12-20T08:58:15;12.40;70.40
41628;DHT22;27321;50.816;6.054;2022-12-20T09:01:18;12.50;70.80
41628;DHT22;27321;50.816;6.054;2022-12-20T09:04:21;12.50;70.90
41628;DHT22;27321;50.816;6.054;2022-12-20T09:07:22;12.50;70.90
41628;DHT22;27321;50.816;6.054;2022-12-20T09:10:23;12.50;71.10
41628;DHT22;27321;50.816;6.054;2022-12-20T09:13:24;12.50;71.30
41628;DHT22;27321;50.816;6.054;2022-12-20T09:16:27;12.50;71.40
41628;DHT22;27321;50.816;6.054;2022-12-20T09:19:30;12.50;71.40
41628;DHT22;27321;50.816;6.054;2022-12-20T09:22:30;12.50;71.10
41628;DHT22;27321;50.816;6.054;2022-12-20T09:25:32;12.60;71.00
41628;DHT22;27321;50.816;6.054;2022-12-20T09:28:33;12.60;71.00
41628;DHT22;27321;50.816;6.054;2022-12-20T09:31:34;12.60;70.50
41628;DHT22;27321;50.816;6.054;2022-12-20T09:34:42;12.60;70.60
41628;DHT22;27321;50.816;6.054;2022-12-20T09:37:58;12.60;70.80
41628;DHT22;27321;50.816;6.054;2022-12-20T09:41:04;12.70;70.60
41628;DHT22;27321;50.816;6.054;2022-12-20T09:44:18;12.70;70.60
41628;DHT22;27321;50.816;6.054;2022-12-20T09:47:23;12.80;70.70
41628;DHT22;27321;50.816;6.054;2022-12-20T09:50:39;12.90;70.40
41628;DHT22;27321;50.816;6.054;2022-12-20T09:57:48;13.00;70.50
41628;DHT22;27321;50.816;6.054;2022-12-20T10:01:15;13.00;69.90
41628;DHT22;27321;50.816;6.054;2022-12-20T10:04:30;13.10;69.90
41628;DHT22;27321;50.816;6.054;2022-12-20T10:07:44;13.10;69.90
41628;DHT22;27321;50.816;6.054;2022-12-20T10:11:07;13.10;70.10
41628;DHT22;27321;50.816;6.054;2022-12-20T10:15:12;13.10;70.40
41628;DHT22;27321;50.816;6.054;2022-12-20T10:22:08;13.10;70.80
41628;DHT22;27321;50.816;6.054;2022-12-20T10:25:22;13.20;71.20
41628;DHT22;27321;50.816;6.054;2022-12-20T10:28:34;13.20;71.00
41628;DHT22;27321;50.816;6.054;2022-12-20T10:31:35;13.20;71.20
41628;DHT22;27321;50.816;6.054;2022-12-20T10:34:36;13.20;70.60
41628;DHT22;27321;50.816;6.054;2022-12-20T10:37:37;13.30;70.70
41628;DHT22;27321;50.816;6.054;2022-12-20T10:40:40;13.30;70.30
41628;DHT22;27321;50.816;6.054;2022-12-20T10:43:44;13.30;70.40
41628;DHT22;27321;50.816;6.054;2022-12-20T10:46:50;13.30;70.20
41628;DHT22;27321;50.816;6.054;2022-12-20T10:50:27;13.40;70.20
41628;DHT22;27321;50.816;6.054;2022-12-20T10:53:30;13.50;69.80
41628;DHT22;27321;50.816;6.054;2022-12-20T10:56:33;13.50;69.30
41628;DHT22;27321;50.816;6.054;2022-12-20T10:59:38;13.50;69.00
41628;DHT22;27321;50.816;6.054;2022-12-20T11:03:20;13.60;69.00
41628;DHT22;27321;50.816;6.054;2022-12-20T11:06:28;13.60;68.80
41628;DHT22;27321;50.816;6.054;2022-12-20T11:09:51;13.70;68.90
41628;DHT22;27321;50.816;6.054;2022-12-20T11:12:59;13.60;69.00
41628;DHT22;27321;50.816;6.054;2022-12-20T11:16:03;13.60;69.40
41628;DHT22;27321;50.816;6.054;2022-12-20T11:26:06;13.50;70.30
41628;DHT22;27321;50.816;6.054;2022-12-20T11:29:58;13.50;70.50
41628;DHT22;27321;50.816;6.054;2022-12-20T11:46:30;13.20;74.50
41628;DHT22;27321;50.816;6.054;2022-12-20T11:53:35;13.10;74.90
41628;DHT22;27321;50.816;6.054;2022-12-20T11:56:41;13.10;75.00
41628;DHT22;27321;50.816;6.054;2022-12-20T11:59:55;13.00;75.20
41628;DHT22;27321;50.816;6.054;2022-12-20T12:03:09;13.00;75.70
41628;DHT22;27321;50.816;6.054;2022-12-20T12:06:24;13.00;75.90
41628;DHT22;27321;50.816;6.054;2022-12-20T12:13:14;13.00;76.00
41628;DHT22;27321;50.816;6.054;2022-12-20T12:16:33;13.00;76.10
41628;DHT22;27321;50.816;6.054;2022-12-20T12:19:40;13.00;75.70
41628;DHT22;27321;50.816;6.054;2022-12-20T12:22:43;13.00;75.50
41628;DHT22;27321;50.816;6.054;2022-12-20T12:25:46;13.00;75.10
41628;DHT22;27321;50.816;6.054;2022-12-20T12:28:52;13.10;75.20
41628;DHT22;27321;50.816;6.054;2022-12-20T12:32:09;13.10;75.20
41628;DHT22;27321;50.816;6.054;2022-12-20T12:45:26;13.10;74.70
41628;DHT22;27321;50.816;6.054;2022-12-20T12:48:39;13.10;74.60
41628;DHT22;27321;50.816;6.054;2022-12-20T12:51:49;13.10;73.70
41628;DHT22;27321;50.816;6.054;2022-12-20T12:54:52;13.10;73.50
41628;DHT22;27321;50.816;6.054;2022-12-20T12:57:57;13.10;72.90
41628;DHT22;27321;50.816;6.054;2022-12-20T13:05:00;13.10;72.50
41628;DHT22;27321;50.816;6.054;2022-12-20T13:18:56;13.20;72.20
41628;DHT22;27321;50.816;6.054;2022-12-20T13:25:34;13.10;71.60
41628;DHT22;27321;50.816;6.054;2022-12-20T13:28:45;13.10;72.00
41628;DHT22;27321;50.816;6.054;2022-12-20T13:31:47;13.10;71.80
41628;DHT22;27321;50.816;6.054;2022-12-20T13:34:55;13.10;72.10
41628;DHT22;27321;50.816;6.054;2022-12-20T13:41:44;13.10;72.60
41628;DHT22;27321;50.816;6.054;2022-12-20T13:44:48;13.10;72.60
41628;DHT22;27321;50.816;6.054;2022-12-20T13:47:54;13.00;72.70
41628;DHT22;27321;50.816;6.054;2022-12-20T13:50:58;13.10;72.90
41628;DHT22;27321;50.816;6.054;2022-12-20T13:54:02;13.00;72.50
41628;DHT22;27321;50.816;6.054;2022-12-20T13:57:05;13.00;72.50
41628;DHT22;27321;50.816;6.054;2022-12-20T14:00:18;13.00;72.40
41628;DHT22;27321;50.816;6.054;2022-12-20T14:03:28;13.10;72.50
41628;DHT22;27321;50.816;6.054;2022-12-20T14:06:30;13.00;73.10
41628;DHT22;27321;50.816;6.054;2022-12-20T14:09:35;13.10;72.80
41628;DHT22;27321;50.816;6.054;2022-12-20T14:12:43;13.00;73.10
41628;DHT22;27321;50.816;6.054;2022-12-20T14:15:46;13.00;73.10
41628;DHT22;27321;50.816;6.054;2022-12-20T14:18:49;13.00;73.70
41628;DHT22;27321;50.816;6.054;2022-12-20T14:21:56;13.00;73.90
41628;DHT22;27321;50.816;6.054;2022-12-20T14:24:57;13.00;74.40
41628;DHT22;27321;50.816;6.054;2022-12-20T14:27:59;13.00;74.60
41628;DHT22;27321;50.816;6.054;2022-12-20T14:31:00;13.00;74.80
41628;DHT22;27321;50.816;6.054;2022-12-20T14:34:05;13.00;74.90
41628;DHT22;27321;50.816;6.054;2022-12-20T14:40:23;13.00;75.10
41628;DHT22;27321;50.816;6.054;2022-12-20T14:43:33;13.00;75.50
41628;DHT22;27321;50.816;6.054;2022-12-20T14:46:34;13.00;75.60
41628;DHT22;27321;50.816;6.054;2022-12-20T14:49:37;12.90;75.80
41628;DHT22;27321;50.816;6.054;2022-12-20T14:52:41;12.80;75.80
41628;DHT22;27321;50.816;6.054;2022-12-20T14:55:44;12.80;75.80
41628;DHT22;27321;50.816;6.054;2022-12-20T14:58:49;12.80;76.20
41628;DHT22;27321;50.816;6.054;2022-12-20T15:02:34;12.80;76.40
41628;DHT22;27321;50.816;6.054;2022-12-20T15:05:47;12.70;76.60
41628;DHT22;27321;50.816;6.054;2022-12-20T15:08:50;12.70;76.80
41628;DHT22;27321;50.816;6.054;2022-12-20T15:11:51;12.60;76.80
41628;DHT22;27321;50.816;6.054;2022-12-20T15:14:53;12.60;76.80
41628;DHT22;27321;50.816;6.054;2022-12-20T15:17:54;12.60;76.90
41628;DHT22;27321;50.816;6.054;2022-12-20T15:21:05;12.70;76.90
41628;DHT22;27321;50.816;6.054;2022-12-20T15:24:16;12.70;76.70
41628;DHT22;27321;50.816;6.054;2022-12-20T15:27:19;12.70;76.80
41628;DHT22;27321;50.816;6.054;2022-12-20T15:30:20;12.80;76.70
41628;DHT22;27321;50.816;6.054;2022-12-20T15:33:27;12.60;76.40
41628;DHT22;27321;50.816;6.054;2022-12-20T15:36:30;12.70;76.50
41628;DHT22;27321;50.816;6.054;2022-12-20T15:39:33;12.60;76.30
41628;DHT22;27321;50.816;6.054;2022-12-20T15:42:34;12.60;76.70
41628;DHT22;27321;50.816;6.054;2022-12-20T15:45:35;12.60;76.70
41628;DHT22;27321;50.816;6.054;2022-12-20T15:48:36;12.70;76.70
41628;DHT22;27321;50.816;6.054;2022-12-20T15:51:37;12.70;76.40
41628;DHT22;27321;50.816;6.054;2022-12-20T15:54:40;12.60;76.70
41628;DHT22;27321;50.816;6.054;2022-12-20T15:57:40;12.60;76.80
41628;DHT22;27321;50.816;6.054;2022-12-20T16:00:42;12.60;76.70
41628;DHT22;27321;50.816;6.054;2022-12-20T16:03:43;12.60;76.70
41628;DHT22;27321;50.816;6.054;2022-12-20T16:06:46;12.60;77.10
41628;DHT22;27321;50.816;6.054;2022-12-20T16:09:48;12.60;76.60
41628;DHT22;27321;50.816;6.054;2022-12-20T16:12:51;12.60;76.80
41628;DHT22;27321;50.816;6.054;2022-12-20T16:15:52;12.60;76.40
41628;DHT22;27321;50.816;6.054;2022-12-20T16:18:53;12.60;76.50
41628;DHT22;27321;50.816;6.054;2022-12-20T16:21:54;12.50;76.30
41628;DHT22;27321;50.816;6.054;2022-12-20T16:24:55;12.50;76.20
41628;DHT22;27321;50.816;6.054;2022-12-20T16:27:57;12.50;76.30
41628;DHT22;27321;50.816;6.054;2022-12-20T16:30:58;12.50;76.60
41628;DHT22;27321;50.816;6.054;2022-12-20T16:34:01;12.50;76.80
41628;DHT22;27321;50.816;6.054;2022-12-20T16:37:04;12.50;76.60
41628;DHT22;27321;50.816;6.054;2022-12-20T16:40:07;12.50;76.50
41628;DHT22;27321;50.816;6.054;2022-12-20T16:43:13;12.50;76.70
41628;DHT22;27321;50.816;6.054;2022-12-20T16:46:20;12.40;76.90
41628;DHT22;27321;50.816;6.054;2022-12-20T16:49:22;12.50;76.90
41628;DHT22;27321;50.816;6.054;2022-12-20T16:52:23;12.40;76.90
41628;DHT22;27321;50.816;6.054;2022-12-20T16:55:25;12.50;76.90
41628;DHT22;27321;50.816;6.054;2022-12-20T16:58:27;12.50;76.90
41628;DHT22;27321;50.816;6.054;2022-12-20T17:01:37;12.50;77.20
41628;DHT22;27321;50.816;6.054;2022-12-20T17:04:39;12.50;77.30
41628;DHT22;27321;50.816;6.054;2022-12-20T17:07:40;12.50;76.90
41628;DHT22;27321;50.816;6.054;2022-12-20T17:10:41;12.50;77.10
41628;DHT22;27321;50.816;6.054;2022-12-20T17:13:43;12.50;77.10
41628;DHT22;27321;50.816;6.054;2022-12-20T17:16:45;12.50;77.00
41628;DHT22;27321;50.816;6.054;2022-12-20T17:19:46;12.50;77.00
41628;DHT22;27321;50.816;6.054;2022-12-20T17:22:52;12.50;77.20
41628;DHT22;27321;50.816;6.054;2022-12-20T17:25:54;12.50;77.20
41628;DHT22;27321;50.816;6.054;2022-12-20T17:28:56;12.50;77.40
41628;DHT22;27321;50.816;6.054;2022-12-20T17:31:58;12.50;77.60
41628;DHT22;27321;50.816;6.054;2022-12-20T17:34:59;12.50;77.40
41628;DHT22;27321;50.816;6.054;2022-12-20T17:38:00;12.50;77.80
41628;DHT22;27321;50.816;6.054;2022-12-20T17:41:02;12.50;78.10
41628;DHT22;27321;50.816;6.054;2022-12-20T17:44:04;12.50;78.10
41628;DHT22;27321;50.816;6.054;2022-12-20T17:47:06;12.50;78.30
41628;DHT22;27321;50.816;6.054;2022-12-20T17:50:07;12.50;78.50
41628;DHT22;27321;50.816;6.054;2022-12-20T17:53:10;12.50;78.80
41628;DHT22;27321;50.816;6.054;2022-12-20T17:56:16;12.50;78.70
41628;DHT22;27321;50.816;6.054;2022-12-20T17:59:23;12.50;78.90
41628;DHT22;27321;50.816;6.054;2022-12-20T18:02:28;12.40;78.90
41628;DHT22;27321;50.816;6.054;2022-12-20T18:05:32;12.40;79.10
41628;DHT22;27321;50.816;6.054;2022-12-20T18:08:33;12.50;79.20
41628;DHT22;27321;50.816;6.054;2022-12-20T18:11:34;12.50;79.20
41628;DHT22;27321;50.816;6.054;2022-12-20T18:14:35;12.50;79.10
41628;DHT22;27321;50.816;6.054;2022-12-20T18:17:37;12.50;79.00
41628;DHT22;27321;50.816;6.054;2022-12-20T18:20:41;12.60;79.00
41628;DHT22;27321;50.816;6.054;2022-12-20T18:24:08;12.60;78.80
41628;DHT22;27321;50.816;6.054;2022-12-20T18:28:08;12.50;78.80
41628;DHT22;27321;50.816;6.054;2022-12-20T18:31:39;12.50;79.20
41628;DHT22;27321;50.816;6.054;2022-12-20T18:34:39;12.50;79.30
41628;DHT22;27321;50.816;6.054;2022-12-20T18:37:40;12.50;79.00
41628;DHT22;27321;50.816;6.054;2022-12-20T18:40:45;12.50;79.10
41628;DHT22;27321;50.816;6.054;2022-12-20T18:43:47;12.50;79.30
41628;DHT22;27321;50.816;6.054;2022-12-20T18:46:49;12.50;79.10
41628;DHT22;27321;50.816;6.054;2022-12-20T18:49:50;12.50;79.30
41628;DHT22;27321;50.816;6.054;2022-12-20T18:52:52;12.40;79.50
41628;DHT22;27321;50.816;6.054;2022-12-20T18:55:53;12.40;79.90
41628;DHT22;27321;50.816;6.054;2022-12-20T18:58:54;12.30;80.20
41628;DHT22;27321;50.816;6.054;2022-12-20T19:01:55;12.30;80.40
41628;DHT22;27321;50.816;6.054;2022-12-20T19:04:57;12.30;80.70
41628;DHT22;27321;50.816;6.054;2022-12-20T19:07:58;12.30;80.90
41628;DHT22;27321;50.816;6.054;2022-12-20T19:11:04;12.30;80.80
41628;DHT22;27321;50.816;6.054;2022-12-20T19:14:07;12.30;81.10
41628;DHT22;27321;50.816;6.054;2022-12-20T19:17:08;12.30;81.40
41628;DHT22;27321;50.816;6.054;2022-12-20T19:20:10;12.20;81.50
41628;DHT22;27321;50.816;6.054;2022-12-20T19:23:11;12.20;81.80
41628;DHT22;27321;50.816;6.054;2022-12-20T19:26:13;12.20;81.50
41628;DHT22;27321;50.816;6.054;2022-12-20T19:29:15;12.20;81.70
41628;DHT22;27321;50.816;6.054;2022-12-20T19:32:16;12.20;81.90
41628;DHT22;27321;50.816;6.054;2022-12-20T19:35:17;12.30;81.80
41628;DHT22;27321;50.816;6.054;2022-12-20T19:38:18;12.30;81.50
41628;DHT22;27321;50.816;6.054;2022-12-20T19:41:19;12.30;81.60
41628;DHT22;27321;50.816;6.054;2022-12-20T19:44:20;12.30;81.90
41628;DHT22;27321;50.816;6.054;2022-12-20T19:47:21;12.30;81.80
41628;DHT22;27321;50.816;6.054;2022-12-20T19:50:23;12.20;82.10
41628;DHT22;27321;50.816;6.054;2022-12-20T19:53:24;12.20;82.10
41628;DHT22;27321;50.816;6.054;2022-12-20T19:56:31;12.20;82.40
41628;DHT22;27321;50.816;6.054;2022-12-20T19:59:33;12.20;82.50
41628;DHT22;27321;50.816;6.054;2022-12-20T20:02:34;12.10;82.50
41628;DHT22;27321;50.816;6.054;2022-12-20T20:05:35;12.20;82.80
41628;DHT22;27321;50.816;6.054;2022-12-20T20:08:36;12.20;82.70
41628;DHT22;27321;50.816;6.054;2022-12-20T20:11:37;12.10;82.80
41628;DHT22;27321;50.816;6.054;2022-12-20T20:14:38;12.10;83.00
41628;DHT22;27321;50.816;6.054;2022-12-20T20:17:39;12.10;82.90
41628;DHT22;27321;50.816;6.054;2022-12-20T20:20:40;12.20;83.00
41628;DHT22;27321;50.816;6.054;2022-12-20T20:23:41;12.20;82.80
41628;DHT22;27321;50.816;6.054;2022-12-20T20:26:43;12.20;82.80
41628;DHT22;27321;50.816;6.054;2022-12-20T20:29:44;12.20;82.80
41628;DHT22;27321;50.816;6.054;2022-12-20T20:32:48;12.20;82.80
41628;DHT22;27321;50.816;6.054;2022-12-20T20:36:00;12.20;83.00
41628;DHT22;27321;50.816;6.054;2022-12-20T20:39:02;12.30;82.60
41628;DHT22;27321;50.816;6.054;2022-12-20T20:42:03;12.30;82.80
41628;DHT22;27321;50.816;6.054;2022-12-20T20:45:05;12.30;82.80
41628;DHT22;27321;50.816;6.054;2022-12-20T20:48:07;12.30;82.60
41628;DHT22;27321;50.816;6.054;2022-12-20T20:51:09;12.20;82.60
41628;DHT22;27321;50.816;6.054;2022-12-20T20:54:10;12.20;82.40
41628;DHT22;27321;50.816;6.054;2022-12-20T20:57:12;12.10;82.80